Time;durP1;ratioP1;P1;durP2;ratioP2;P2;SDS_P1;SDS_P2;PMS_P1;PMS_P2;Temp;Humidity;BMP_temperature;BMP_pressure;BME280_temperature;BME280_humidity;BME280_pressure;Samples;Min_cycle;Max_cycle;Signal;HPM_P1;HPM_P2
2023/10/27 00:00:38;;;;;;;14.40;6.93;;;10.70;99.90;;;;;;5037694;28;20030;-52
2023/10/27 00:03:04;;;;;;;15.80;6.20;;;10.70;99.90;;;;;;5037756;28;20029;-52
2023/10/27 00:05:31;;;;;;;12.30;6.70;;;10.70;99.90;;;;;;5037123;28;20021;-50
2023/10/27 00:07:57;;;;;;;13.40;6.17;;;10.70;99.90;;;;;;5037399;28;20076;-52
2023/10/27 00:10:23;;;;;;;12.27;6.07;;;10.70;99.90;;;;;;5003184;28;20455;-54
2023/10/27 00:12:49;;;;;;;12.53;6.00;;;10.70;99.90;;;;;;5037535;28;20080;-54
2023/10/27 00:15:15;;;;;;;15.27;6.67;;;10.70;99.90;;;;;;5019385;28;20026;-54
2023/10/27 00:17:40;;;;;;;11.73;5.90;;;10.70;99.90;;;;;;5037545;28;20403;-51
2023/10/27 00:20:06;;;;;;;14.87;5.80;;;10.70;99.90;;;;;;5037423;28;20022;-52
2023/10/27 00:22:33;;;;;;;10.90;5.87;;;10.70;99.90;;;;;;5019248;28;20036;-53
2023/10/27 00:24:59;;;;;;;13.17;6.03;;;10.70;99.90;;;;;;5037604;28;20049;-52
2023/10/27 00:27:25;;;;;;;15.02;7.03;;;10.70;99.90;;;;;;5037483;28;20041;-54
2023/10/27 00:29:50;;;;;;;15.38;5.47;;;10.80;99.90;;;;;;5037236;28;20029;-50
2023/10/27 00:32:16;;;;;;;10.73;5.70;;;10.80;99.90;;;;;;5036777;28;20479;-52
2023/10/27 00:34:42;;;;;;;15.27;6.00;;;10.80;99.90;;;;;;5036843;28;20033;-52
2023/10/27 00:37:07;;;;;;;9.97;5.57;;;10.80;99.90;;;;;;5019377;28;20041;-53
2023/10/27 00:39:33;;;;;;;15.45;5.63;;;10.90;99.90;;;;;;5019085;28;20267;-55
2023/10/27 00:41:59;;;;;;;11.83;5.37;;;11.00;99.90;;;;;;5019561;28;20555;-49
2023/10/27 00:44:24;;;;;;;13.10;5.57;;;11.00;99.90;;;;;;5019304;28;20445;-54
2023/10/27 00:46:52;;;;;;;11.27;5.33;;;11.10;99.90;;;;;;5037172;28;20334;-52
2023/10/27 00:49:19;;;;;;;9.90;5.30;;;11.10;99.90;;;;;;5002841;28;20064;-52
2023/10/27 00:51:49;;;;;;;11.27;5.20;;;11.10;99.90;;;;;;5018863;28;20056;-54
2023/10/27 00:54:16;;;;;;;13.87;5.20;;;11.00;99.90;;;;;;5019267;28;20482;-53
2023/10/27 00:56:44;;;;;;;11.37;6.27;;;11.00;99.90;;;;;;5002648;28;20452;-52
2023/10/27 00:59:11;;;;;;;11.23;5.07;;;11.10;99.90;;;;;;5018622;28;20065;-50
2023/10/27 01:01:36;;;;;;;11.93;5.87;;;11.10;99.90;;;;;;5019044;28;20478;-52
2023/10/27 01:04:03;;;;;;;11.20;5.53;;;11.00;99.90;;;;;;5036339;28;20179;-53
2023/10/27 01:06:29;;;;;;;10.03;4.90;;;11.00;99.90;;;;;;5018315;28;20047;-52
2023/10/27 01:08:55;;;;;;;11.18;4.90;;;11.00;99.90;;;;;;5017810;28;20497;-55
2023/10/27 01:11:21;;;;;;;12.63;5.93;;;11.00;99.90;;;;;;5017142;28;20394;-55
2023/10/27 01:13:54;;;;;;;10.77;4.97;;;11.00;99.90;;;;;;5035104;28;20057;-54
2023/10/27 01:16:21;;;;;;;12.07;4.97;;;11.10;99.90;;;;;;5015951;28;20075;-53
2023/10/27 01:18:47;;;;;;;11.60;5.13;;;11.10;99.90;;;;;;5016005;28;20040;-54
2023/10/27 01:21:12;;;;;;;11.53;5.13;;;11.10;99.90;;;;;;5016353;28;20037;-54
2023/10/27 01:23:38;;;;;;;9.63;4.57;;;11.10;99.90;;;;;;5015765;28;20061;-54
2023/10/27 01:26:04;;;;;;;11.40;5.07;;;11.10;99.90;;;;;;5033720;28;20109;-51
2023/10/27 01:28:33;;;;;;;9.90;5.10;;;11.10;99.90;;;;;;5015791;28;20037;-54
2023/10/27 01:30:59;;;;;;;10.70;4.50;;;11.10;99.90;;;;;;5016382;28;20156;-54
2023/10/27 01:33:24;;;;;;;7.60;4.63;;;11.00;99.90;;;;;;5016000;28;20470;-54
2023/10/27 01:35:51;;;;;;;9.53;4.43;;;11.00;99.90;;;;;;5033818;28;20116;-53
2023/10/27 01:38:17;;;;;;;9.87;4.37;;;10.90;99.90;;;;;;5034876;28;20426;-54
2023/10/27 01:40:42;;;;;;;9.43;3.77;;;10.90;99.90;;;;;;5035257;28;20112;-50
2023/10/27 01:43:08;;;;;;;8.33;3.80;;;10.90;99.90;;;;;;5036448;28;20076;-51
2023/10/27 01:45:34;;;;;;;9.80;4.20;;;10.90;99.90;;;;;;5036493;28;20033;-54
2023/10/27 01:48:00;;;;;;;10.23;4.23;;;10.90;99.90;;;;;;5018663;28;20033;-51
2023/10/27 01:50:25;;;;;;;9.30;4.20;;;11.00;99.90;;;;;;5018548;28;20033;-51
2023/10/27 01:52:51;;;;;;;13.20;4.50;;;10.90;99.90;;;;;;5018767;28;20041;-51
2023/10/27 01:55:17;;;;;;;8.17;3.93;;;11.00;99.90;;;;;;5018066;28;20033;-54
2023/10/27 01:57:43;;;;;;;15.03;4.27;;;10.90;99.90;;;;;;5017990;28;20033;-54
2023/10/27 02:00:09;;;;;;;8.50;3.63;;;10.90;99.90;;;;;;5017636;28;20033;-54
2023/10/27 02:02:38;;;;;;;;;;;11.00;99.90;;;;;;5036580;28;20091;-53
2023/10/27 02:05:05;;;;;;;9.60;3.97;;;11.00;99.90;;;;;;5017157;28;20000;-54
2023/10/27 02:07:31;;;;;;;12.90;4.27;;;10.90;99.90;;;;;;5017682;28;20033;-51
2023/10/27 02:09:59;;;;;;;10.23;4.03;;;10.90;99.90;;;;;;5017111;28;20030;-54
2023/10/27 02:12:25;;;;;;;10.63;4.03;;;10.90;99.90;;;;;;5017683;28;20139;-53
2023/10/27 02:14:51;;;;;;;7.87;3.83;;;10.80;99.90;;;;;;5017968;28;20029;-54
2023/10/27 02:17:17;;;;;;;8.10;3.40;;;10.80;99.90;;;;;;5017353;28;20037;-52
2023/10/27 02:19:43;;;;;;;11.50;3.50;;;10.90;99.90;;;;;;5017422;28;20026;-49
2023/10/27 02:22:08;;;;;;;8.33;3.23;;;10.80;99.90;;;;;;5017916;28;20036;-52
2023/10/27 02:24:34;;;;;;;9.73;3.50;;;10.90;99.90;;;;;;5035639;28;20048;-55
2023/10/27 02:27:00;;;;;;;8.13;3.53;;;10.80;99.90;;;;;;5017893;28;20474;-52
2023/10/27 02:29:26;;;;;;;8.40;3.30;;;10.70;99.90;;;;;;5035857;28;20040;-54
2023/10/27 02:31:52;;;;;;;12.43;3.50;;;10.70;99.90;;;;;;5035370;28;20030;-54
2023/10/27 02:34:17;;;;;;;10.47;3.30;;;10.70;99.90;;;;;;5017792;28;20090;-54
2023/10/27 02:36:43;;;;;;;9.67;3.57;;;10.70;99.90;;;;;;5017625;28;20037;-54
2023/10/27 02:39:09;;;;;;;9.20;3.23;;;10.70;99.90;;;;;;5017581;28;20033;-54
2023/10/27 02:41:36;;;;;;;8.87;3.70;;;10.60;99.90;;;;;;5001462;28;20025;-54
2023/10/27 02:44:02;;;;;;;8.43;3.57;;;10.60;99.90;;;;;;5017759;28;20029;-53
2023/10/27 02:46:27;;;;;;;12.20;3.50;;;10.60;99.90;;;;;;5018855;28;20033;-51
2023/10/27 02:48:53;;;;;;;11.73;3.40;;;10.60;99.90;;;;;;5038881;28;20106;-52
2023/10/27 02:51:19;;;;;;;9.33;3.80;;;10.60;99.90;;;;;;5021016;28;20022;-54
2023/10/27 02:53:45;;;;;;;10.07;3.33;;;10.50;99.90;;;;;;5020755;28;20038;-53
2023/10/27 02:56:10;;;;;;;13.43;4.10;;;10.50;99.90;;;;;;5038379;28;20109;-55
2023/10/27 02:58:36;;;;;;;10.10;3.40;;;10.50;99.90;;;;;;5038277;28;20083;-53
2023/10/27 03:01:09;;;;;;;8.13;3.10;;;10.50;99.90;;;;;;5020990;28;20033;-53
2023/10/27 03:03:36;;;;;;;11.50;3.27;;;10.50;99.90;;;;;;5038468;28;20431;-53
2023/10/27 03:06:02;;;;;;;12.10;3.30;;;10.50;99.90;;;;;;5038767;28;20095;-53
2023/10/27 03:08:28;;;;;;;10.90;2.93;;;10.50;99.90;;;;;;5020873;28;20185;-54
2023/10/27 03:10:54;;;;;;;8.63;2.90;;;10.50;99.90;;;;;;5038157;28;20033;-54
2023/10/27 03:13:20;;;;;;;8.43;2.67;;;10.40;99.90;;;;;;5021050;28;20041;-54
2023/10/27 03:15:46;;;;;;;6.43;2.87;;;10.40;99.90;;;;;;5038438;28;20032;-55
2023/10/27 03:18:12;;;;;;;7.17;3.07;;;10.40;99.90;;;;;;5020542;28;20561;-53
2023/10/27 03:20:38;;;;;;;7.00;2.63;;;10.40;99.90;;;;;;5037458;28;20061;-54
2023/10/27 03:23:03;;;;;;;13.30;3.37;;;10.40;99.90;;;;;;5020102;28;20033;-55
2023/10/27 03:25:29;;;;;;;8.83;2.63;;;10.40;99.90;;;;;;5037848;28;20033;-51
2023/10/27 03:27:55;;;;;;;9.00;2.87;;;10.40;99.90;;;;;;5020612;28;20030;-52
2023/10/27 03:30:22;;;;;;;8.30;3.10;;;10.40;99.90;;;;;;5038025;28;20032;-54
2023/10/27 03:32:48;;;;;;;8.80;2.50;;;10.40;99.90;;;;;;5019897;28;20025;-55
2023/10/27 03:35:14;;;;;;;6.57;2.57;;;10.40;99.90;;;;;;5019668;28;20069;-54
2023/10/27 03:37:40;;;;;;;6.37;2.20;;;10.40;99.90;;;;;;5037106;28;20028;-54
2023/10/27 03:40:07;;;;;;;7.07;3.10;;;10.50;99.90;;;;;;5036255;28;20402;-52
2023/10/27 03:42:33;;;;;;;12.47;2.73;;;10.40;99.90;;;;;;5037600;28;20025;-54
2023/10/27 03:45:00;;;;;;;7.63;2.57;;;10.40;99.90;;;;;;5037372;28;20482;-55
2023/10/27 03:47:26;;;;;;;8.13;2.43;;;10.40;99.90;;;;;;5020705;28;20030;-54
2023/10/27 03:49:51;;;;;;;7.93;2.40;;;10.40;99.90;;;;;;5037684;28;20036;-54
2023/10/27 03:52:17;;;;;;;8.17;2.63;;;10.40;99.90;;;;;;5003614;28;20453;-50
2023/10/27 03:54:43;;;;;;;5.50;2.37;;;10.50;99.90;;;;;;5037677;28;20123;-53
2023/10/27 03:57:09;;;;;;;8.00;2.73;;;10.40;99.90;;;;;;5036675;28;20064;-53
2023/10/27 03:59:34;;;;;;;9.20;2.67;;;10.40;99.90;;;;;;5036503;28;20064;-53
2023/10/27 04:02:00;;;;;;;6.83;2.23;;;10.40;99.90;;;;;;5037464;28;20100;-52
2023/10/27 04:04:26;;;;;;;7.20;2.80;;;10.40;99.90;;;;;;5037947;28;20025;-54
2023/10/27 04:06:53;;;;;;;4.20;2.17;;;10.40;99.90;;;;;;5019722;28;20026;-53
2023/10/27 04:09:21;;;;;;;10.37;2.70;;;10.40;99.90;;;;;;5036788;28;20030;-54
2023/10/27 04:11:46;;;;;;;7.63;2.43;;;10.40;99.90;;;;;;5037731;28;20034;-54
2023/10/27 04:14:12;;;;;;;7.30;2.33;;;10.40;99.90;;;;;;5019789;28;20509;-52
2023/10/27 04:16:38;;;;;;;6.27;2.50;;;10.40;99.90;;;;;;5037383;28;20021;-51
2023/10/27 04:19:04;;;;;;;6.70;2.60;;;10.40;99.90;;;;;;5037530;28;20120;-51
2023/10/27 04:21:30;;;;;;;11.50;2.70;;;10.40;99.90;;;;;;5037471;28;20124;-55
2023/10/27 04:23:58;;;;;;;10.27;3.00;;;10.40;99.90;;;;;;5037239;28;20049;-54
2023/10/27 04:26:23;;;;;;;8.97;2.93;;;10.40;99.90;;;;;;5036667;28;20116;-55
2023/10/27 04:28:49;;;;;;;7.00;2.17;;;10.40;99.90;;;;;;5036610;28;20073;-53
2023/10/27 04:31:14;;;;;;;8.30;2.57;;;10.40;99.90;;;;;;5037350;28;20092;-53
2023/10/27 04:33:40;;;;;;;9.43;3.00;;;10.40;99.90;;;;;;5037362;28;20034;-55
2023/10/27 04:36:06;;;;;;;9.00;2.93;;;10.30;99.90;;;;;;5036967;28;20025;-55
2023/10/27 04:38:31;;;;;;;12.50;2.80;;;10.40;99.90;;;;;;5036847;28;20124;-55
2023/10/27 04:40:57;;;;;;;7.83;2.67;;;10.30;99.90;;;;;;5036791;28;20029;-55
2023/10/27 04:43:23;;;;;;;8.20;2.57;;;10.30;99.90;;;;;;5036201;28;20103;-55
2023/10/27 04:45:48;;;;;;;8.73;2.73;;;10.30;99.90;;;;;;5035904;28;20115;-55
2023/10/27 04:48:14;;;;;;;8.73;2.60;;;10.30;99.90;;;;;;5035930;28;20027;-55
2023/10/27 04:50:40;;;;;;;7.33;2.57;;;10.30;99.90;;;;;;5036155;28;20493;-52
2023/10/27 04:53:05;;;;;;;8.00;2.53;;;10.30;99.90;;;;;;5036182;28;20038;-52
2023/10/27 04:55:31;;;;;;;7.53;2.23;;;10.30;99.90;;;;;;5018637;28;20068;-54
2023/10/27 04:57:57;;;;;;;10.10;2.43;;;10.30;99.90;;;;;;5036890;28;20032;-55
2023/10/27 05:00:23;;;;;;;5.43;1.93;;;10.30;99.90;;;;;;5018571;28;20036;-53
2023/10/27 05:02:50;;;;;;;4.57;2.20;;;10.30;99.90;;;;;;5036564;28;20030;-54
2023/10/27 05:05:16;;;;;;;8.93;2.53;;;10.30;99.90;;;;;;5036386;28;20028;-54
2023/10/27 05:07:41;;;;;;;5.97;2.17;;;10.30;99.90;;;;;;5036519;28;20021;-54
2023/10/27 05:10:07;;;;;;;6.77;2.20;;;10.30;99.90;;;;;;5036037;28;20040;-55
2023/10/27 05:12:36;;;;;;;9.30;2.20;;;10.20;99.90;;;;;;5036271;28;20079;-55
2023/10/27 05:15:03;;;;;;;9.17;2.60;;;10.20;99.90;;;;;;5036360;28;20048;-55
2023/10/27 05:17:29;;;;;;;5.73;2.17;;;10.20;99.90;;;;;;5036744;28;20456;-54
2023/10/27 05:19:54;;;;;;;7.10;2.10;;;10.20;99.90;;;;;;5035812;28;20039;-53
2023/10/27 05:22:22;;;;;;;6.47;2.77;;;10.20;99.90;;;;;;5036229;28;20049;-52
2023/10/27 05:24:48;;;;;;;10.40;2.73;;;10.20;99.90;;;;;;5036024;28;20063;-53
2023/10/27 05:27:14;;;;;;;9.83;2.30;;;10.20;99.90;;;;;;5035808;28;20045;-53
2023/10/27 05:29:39;;;;;;;8.10;2.70;;;10.20;99.90;;;;;;5036129;28;20029;-54
2023/10/27 05:32:05;;;;;;;7.97;2.23;;;10.20;99.90;;;;;;5035727;28;20033;-53
2023/10/27 05:34:31;;;;;;;8.67;2.33;;;10.30;99.90;;;;;;5018840;28;20316;-54
2023/10/27 05:36:56;;;;;;;9.40;2.40;;;10.30;99.90;;;;;;5035934;28;20099;-51
2023/10/27 05:39:26;;;;;;;8.77;2.63;;;10.30;99.90;;;;;;5017760;28;20490;-53
2023/10/27 05:41:52;;;;;;;9.23;2.63;;;10.30;99.90;;;;;;5035910;28;20033;-53
2023/10/27 05:44:17;;;;;;;8.43;2.43;;;10.30;99.90;;;;;;5035611;28;20087;-50
2023/10/27 05:46:43;;;;;;;8.17;2.37;;;10.30;99.90;;;;;;5017930;28;20034;-51
2023/10/27 05:49:09;;;;;;;5.00;1.93;;;10.30;99.90;;;;;;5035129;28;20034;-55
2023/10/27 05:51:35;;;;;;;9.00;2.00;;;10.30;99.90;;;;;;5035774;28;20033;-55
2023/10/27 05:54:05;;;;;;;6.83;2.03;;;10.30;99.90;;;;;;5035902;28;20397;-55
2023/10/27 05:56:30;;;;;;;;;;;10.30;99.90;;;;;;5035863;28;20042;-52
2023/10/27 05:58:56;;;;;;;5.77;2.37;;;10.30;99.90;;;;;;5034953;28;19956;-54
2023/10/27 06:01:22;;;;;;;7.13;2.47;;;10.30;99.90;;;;;;5035016;28;20037;-53
2023/10/27 06:03:48;;;;;;;7.23;2.43;;;10.30;99.90;;;;;;5035198;28;20041;-55
2023/10/27 06:06:14;;;;;;;8.37;3.00;;;10.30;99.90;;;;;;5016737;28;20057;-55
2023/10/27 06:08:44;;;;;;;11.30;3.00;;;10.30;99.90;;;;;;5034499;28;20044;-53
2023/10/27 06:11:13;;;;;;;7.83;3.07;;;10.30;99.90;;;;;;5035360;28;20132;-53
2023/10/27 06:13:39;;;;;;;;;;;10.30;99.90;;;;;;5035731;28;20037;-52
2023/10/27 06:16:05;;;;;;;7.60;2.20;;;10.30;99.90;;;;;;5017429;28;20429;-53
2023/10/27 06:18:31;;;;;;;8.10;2.43;;;10.20;99.90;;;;;;5034603;28;20483;-50
2023/10/27 06:20:57;;;;;;;7.27;3.10;;;10.30;99.90;;;;;;5036165;28;20048;-53
2023/10/27 06:23:22;;;;;;;10.33;2.90;;;10.30;99.90;;;;;;5038972;28;20033;-54
2023/10/27 06:25:48;;;;;;;12.13;2.30;;;10.30;99.90;;;;;;5038151;28;20152;-55
2023/10/27 06:28:14;;;;;;;13.40;3.80;;;10.20;99.90;;;;;;5038947;28;20056;-54
2023/10/27 06:30:39;;;;;;;9.07;2.50;;;10.20;99.90;;;;;;5039455;28;20033;-54
2023/10/27 06:33:06;;;;;;;6.30;2.47;;;10.20;99.90;;;;;;5038865;28;20052;-54
2023/10/27 06:35:31;;;;;;;11.30;2.43;;;10.30;99.90;;;;;;5038916;28;20112;-53
2023/10/27 06:37:57;;;;;;;8.23;2.63;;;10.30;99.90;;;;;;5038383;28;20064;-51
2023/10/27 06:40:22;;;;;;;8.00;2.63;;;10.30;99.90;;;;;;5038842;28;20476;-53
2023/10/27 06:42:48;;;;;;;6.33;2.30;;;10.30;99.90;;;;;;5021263;28;20028;-53
2023/10/27 06:45:14;;;;;;;12.80;3.97;;;10.40;99.90;;;;;;5038289;28;20021;-55
2023/10/27 06:47:40;;;;;;;7.83;2.80;;;10.40;99.90;;;;;;5021046;28;20029;-54
2023/10/27 06:50:06;;;;;;;14.27;2.80;;;10.40;99.90;;;;;;5020519;28;20121;-55
2023/10/27 06:52:34;;;;;;;5.90;1.93;;;10.40;99.90;;;;;;5037849;28;20029;-55
2023/10/27 06:55:00;;;;;;;5.10;1.90;;;10.40;99.90;;;;;;5038643;28;20117;-54
2023/10/27 06:57:26;;;;;;;6.47;2.10;;;10.30;99.90;;;;;;5038577;28;20128;-53
2023/10/27 06:59:55;;;;;;;5.17;2.50;;;10.30;99.90;;;;;;5039105;28;20087;-53
2023/10/27 07:02:22;;;;;;;8.38;3.17;;;10.40;99.90;;;;;;5038487;28;20072;-54
2023/10/27 07:04:47;;;;;;;7.37;2.83;;;10.40;99.90;;;;;;5038407;28;20382;-54
2023/10/27 07:07:13;;;;;;;6.53;2.53;;;10.30;99.90;;;;;;5038524;28;20037;-54
2023/10/27 07:09:38;;;;;;;9.30;2.97;;;10.30;99.90;;;;;;5037972;28;20036;-54
2023/10/27 07:12:05;;;;;;;7.40;2.53;;;10.40;99.90;;;;;;5020497;28;20040;-54
2023/10/27 07:14:31;;;;;;;7.17;2.53;;;10.50;99.90;;;;;;5038948;28;20073;-55
2023/10/27 07:16:59;;;;;;;6.47;2.50;;;10.40;99.90;;;;;;5038044;28;20087;-52
2023/10/27 07:19:25;;;;;;;10.83;3.33;;;10.40;99.90;;;;;;5037604;28;20049;-51
2023/10/27 07:21:51;;;;;;;10.87;2.90;;;10.40;99.90;;;;;;5038558;28;20454;-54
2023/10/27 07:24:16;;;;;;;8.23;2.63;;;10.40;99.90;;;;;;5038163;28;20208;-54
2023/10/27 07:26:42;;;;;;;10.70;2.97;;;10.40;99.90;;;;;;5037608;28;20494;-52
2023/10/27 07:29:08;;;;;;;8.93;2.80;;;10.50;99.90;;;;;;5038060;28;20457;-54
2023/10/27 07:31:34;;;;;;;7.57;2.70;;;10.50;99.90;;;;;;5037817;28;20053;-54
2023/10/27 07:34:00;;;;;;;8.20;2.37;;;10.50;99.90;;;;;;5037720;28;20030;-53
2023/10/27 07:36:26;;;;;;;7.37;2.47;;;10.50;99.90;;;;;;5037760;28;20053;-55
2023/10/27 07:38:52;;;;;;;5.97;2.40;;;10.50;99.90;;;;;;5038038;28;20060;-54
2023/10/27 07:41:18;;;;;;;5.60;2.20;;;10.50;99.90;;;;;;5037322;28;20052;-54
2023/10/27 07:43:44;;;;;;;6.00;2.90;;;10.50;99.90;;;;;;5037735;28;20033;-51
2023/10/27 07:46:10;;;;;;;6.80;2.30;;;10.60;99.90;;;;;;5037509;28;20032;-55
2023/10/27 07:48:37;;;;;;;6.83;2.27;;;10.60;99.90;;;;;;5037147;28;20040;-54
2023/10/27 07:51:03;;;;;;;8.40;2.20;;;10.70;99.90;;;;;;5037070;28;20052;-53
2023/10/27 07:53:29;;;;;;;7.43;2.50;;;10.70;99.90;;;;;;5037284;28;20037;-52
2023/10/27 07:55:55;;;;;;;6.37;2.80;;;10.70;99.90;;;;;;5037430;28;20060;-55
2023/10/27 07:58:23;;;;;;;8.07;2.83;;;10.80;99.90;;;;;;5037596;28;20083;-53
2023/10/27 08:00:49;;;;;;;6.60;1.87;;;10.80;99.90;;;;;;5036606;28;20478;-55
2023/10/27 08:03:14;;;;;;;8.67;1.93;;;10.90;99.90;;;;;;5037046;28;20490;-52
2023/10/27 08:05:40;;;;;;;5.90;1.63;;;10.80;99.90;;;;;;5036875;28;20029;-52
2023/10/27 08:08:06;;;;;;;4.60;1.97;;;10.90;99.90;;;;;;5037091;28;20451;-55
2023/10/27 08:10:32;;;;;;;5.33;1.80;;;10.90;99.90;;;;;;5036923;28;20124;-53
2023/10/27 08:12:58;;;;;;;4.47;1.77;;;10.90;99.90;;;;;;5037279;28;20039;-55
2023/10/27 08:15:23;;;;;;;4.43;1.67;;;11.00;99.90;;;;;;5037010;28;20405;-54
2023/10/27 08:17:49;;;;;;;6.30;1.67;;;11.00;99.90;;;;;;5037176;28;20497;-53
2023/10/27 08:20:16;;;;;;;4.97;1.93;;;11.00;99.90;;;;;;5036251;28;20109;-54
2023/10/27 08:22:43;;;;;;;8.93;2.23;;;11.10;99.90;;;;;;5036489;28;20037;-54
2023/10/27 08:25:09;;;;;;;4.63;1.40;;;11.10;99.90;;;;;;5036294;28;20276;-55
2023/10/27 08:27:35;;;;;;;5.17;1.53;;;11.10;99.90;;;;;;5036286;28;20029;-54
2023/10/27 08:30:00;;;;;;;6.60;1.87;;;11.10;99.90;;;;;;5036026;28;20045;-55
2023/10/27 08:32:26;;;;;;;6.50;1.43;;;11.10;99.90;;;;;;5036788;28;20029;-54
2023/10/27 08:34:52;;;;;;;2.73;1.43;;;11.10;99.90;;;;;;5002272;28;20029;-55
2023/10/27 08:37:18;;;;;;;2.67;1.43;;;11.10;99.90;;;;;;5037239;28;20041;-54
2023/10/27 08:39:44;;;;;;;4.67;1.40;;;11.00;99.90;;;;;;5036280;28;20441;-55
2023/10/27 08:42:10;;;;;;;3.23;1.93;;;11.10;99.90;;;;;;5036590;28;20063;-52
2023/10/27 08:44:37;;;;;;;3.40;1.17;;;11.10;99.90;;;;;;5017465;28;20474;-55
2023/10/27 08:47:04;;;;;;;3.67;1.47;;;11.10;99.90;;;;;;5035585;28;20068;-53
2023/10/27 08:49:31;;;;;;;4.67;1.63;;;11.10;99.90;;;;;;5035793;28;20375;-54
2023/10/27 08:52:00;;;;;;;3.53;1.40;;;11.10;99.90;;;;;;5036487;28;20386;-54
2023/10/27 08:54:25;;;;;;;3.88;1.35;;;11.10;99.90;;;;;;5018832;28;20118;-52
2023/10/27 08:56:51;;;;;;;4.93;1.63;;;11.10;99.90;;;;;;5036799;28;20033;-55
2023/10/27 08:59:17;;;;;;;4.80;1.80;;;11.10;99.90;;;;;;5036674;28;20041;-55
2023/10/27 09:01:43;;;;;;;4.30;1.50;;;11.10;99.90;;;;;;5036659;28;20371;-53
2023/10/27 09:04:14;;;;;;;4.77;2.13;;;11.10;99.90;;;;;;5036715;28;20466;-55
2023/10/27 09:06:41;;;;;;;5.93;2.50;;;11.10;99.90;;;;;;5036087;28;20033;-53
2023/10/27 09:09:09;;;;;;;6.07;2.40;;;11.10;99.90;;;;;;5035837;28;20029;-55
2023/10/27 09:11:47;;;;;;;6.53;2.53;;;11.10;99.90;;;;;;5036516;28;20033;-54
2023/10/27 09:14:18;;;;;;;5.50;2.80;;;11.20;99.90;;;;;;5018914;28;20037;-54
2023/10/27 09:16:43;;;;;;;7.87;2.57;;;11.20;99.90;;;;;;5036123;28;20049;-51
2023/10/27 09:19:26;;;;;;;7.07;2.40;;;11.30;99.90;;;;;;5035500;28;20425;-56
2023/10/27 09:21:55;;;;;;;7.20;2.40;;;11.30;99.90;;;;;;5036686;28;20466;-53
2023/10/27 09:24:25;;;;;;;5.55;1.95;;;11.40;99.90;;;;;;5019126;28;20029;-51
2023/10/27 09:26:51;;;;;;;4.23;2.13;;;11.40;99.90;;;;;;5036903;28;20449;-54
2023/10/27 09:29:17;;;;;;;3.97;2.07;;;11.40;99.90;;;;;;5036627;28;20059;-54
2023/10/27 09:31:44;;;;;;;3.90;2.10;;;11.50;99.90;;;;;;5037195;28;20097;-53
2023/10/27 09:34:25;;;;;;;2.93;1.83;;;11.50;99.90;;;;;;5036842;28;20389;-55
2023/10/27 09:36:58;;;;;;;4.37;2.00;;;11.50;99.90;;;;;;5036579;28;20029;-51
2023/10/27 09:39:24;;;;;;;5.40;2.03;;;11.50;99.90;;;;;;5036155;28;20029;-53
2023/10/27 09:42:06;;;;;;;4.87;2.10;;;11.50;99.90;;;;;;5036105;28;20033;-51
2023/10/27 09:44:42;;;;;;;3.57;1.70;;;11.60;99.90;;;;;;5036266;28;20056;-50
2023/10/27 09:47:28;;;;;;;5.67;1.90;;;11.60;99.90;;;;;;5036169;28;20113;-50
2023/10/27 09:50:00;;;;;;;4.53;2.20;;;11.60;99.90;;;;;;5036051;28;20414;-52
2023/10/27 09:52:28;;;;;;;5.43;2.00;;;11.60;99.90;;;;;;5036140;28;20216;-54
2023/10/27 09:54:57;;;;;;;5.90;2.15;;;11.60;99.90;;;;;;5035551;28;20025;-51
2023/10/27 09:57:23;;;;;;;5.57;2.55;;;11.70;99.90;;;;;;5035237;28;20044;-51
2023/10/27 09:59:50;;;;;;;4.88;2.65;;;11.70;99.90;;;;;;5018324;28;20037;-50
2023/10/27 10:02:17;;;;;;;5.20;1.97;;;11.70;99.90;;;;;;5018945;28;20109;-50
2023/10/27 10:04:52;;;;;;;6.03;2.40;;;11.70;99.90;;;;;;5035718;28;20021;-50
2023/10/27 10:07:42;;;;;;;5.60;2.33;;;11.80;99.90;;;;;;5036453;28;20479;-50
2023/10/27 10:10:19;;;;;;;5.05;2.20;;;11.80;99.90;;;;;;5036616;28;20063;-51
2023/10/27 10:13:07;;;;;;;3.70;1.90;;;11.80;99.90;;;;;;5018808;28;20055;-55
2023/10/27 10:15:37;;;;;;;6.03;2.63;;;11.80;99.90;;;;;;5034953;28;20037;-53
2023/10/27 10:18:05;;;;;;;5.50;2.60;;;11.80;99.90;;;;;;5035448;28;20033;-54
2023/10/27 10:20:44;;;;;;;5.22;2.38;;;11.90;99.90;;;;;;5035400;28;20022;-53
2023/10/27 10:23:10;;;;;;;5.43;2.30;;;11.90;99.90;;;;;;5036310;28;20117;-50
2023/10/27 10:25:48;;;;;;;6.32;2.55;;;11.90;99.90;;;;;;5035951;28;20022;-52
2023/10/27 10:28:14;;;;;;;7.65;3.35;;;11.90;99.90;;;;;;5036004;28;20037;-51
2023/10/27 10:30:44;;;;;;;7.73;3.30;;;11.90;99.90;;;;;;5035791;28;20105;-53
2023/10/27 10:33:15;;;;;;;9.25;3.95;;;11.90;99.90;;;;;;5036161;28;20482;-51
2023/10/27 10:35:46;;;;;;;8.73;3.53;;;11.90;99.90;;;;;;5018536;28;20025;-52
2023/10/27 10:38:35;;;;;;;8.48;4.35;;;11.90;99.90;;;;;;5035805;28;20069;-51
2023/10/27 10:41:02;;;;;;;;;;;12.00;99.90;;;;;;5036538;28;20026;-52
2023/10/27 10:43:30;;;;;;;11.52;4.30;;;12.00;99.90;;;;;;5035202;28;20344;-53
2023/10/27 10:46:10;;;;;;;8.32;4.10;;;12.00;99.90;;;;;;5036133;28;20084;-50
2023/10/27 10:48:44;;;;;;;11.40;3.93;;;12.00;99.90;;;;;;5035349;28;20030;-53
2023/10/27 10:51:11;;;;;;;8.27;4.18;;;12.10;99.90;;;;;;5035367;28;20486;-53
2023/10/27 10:53:37;;;;;;;9.05;4.13;;;12.20;99.90;;;;;;5035445;28;20041;-54
2023/10/27 10:56:04;;;;;;;8.68;4.10;;;12.20;99.90;;;;;;5036000;28;20289;-54
2023/10/27 10:58:37;;;;;;;8.27;3.85;;;12.20;99.90;;;;;;5017652;28;20056;-52
2023/10/27 11:01:03;;;;;;;6.90;3.83;;;12.20;99.90;;;;;;5036098;28;20036;-50
2023/10/27 11:03:34;;;;;;;7.72;3.85;;;12.20;99.90;;;;;;5035985;28;20033;-54
2023/10/27 11:06:05;;;;;;;7.57;3.47;;;12.20;99.90;;;;;;5035855;28;20038;-54
2023/10/27 11:08:37;;;;;;;8.75;3.72;;;12.20;99.90;;;;;;5038456;28;20037;-51
2023/10/27 11:11:16;;;;;;;9.02;3.63;;;12.20;99.90;;;;;;5039293;28;20065;-51
2023/10/27 11:13:47;;;;;;;8.45;4.07;;;12.20;99.90;;;;;;5021721;28;20049;-51
2023/10/27 11:16:18;;;;;;;7.18;4.03;;;12.30;99.90;;;;;;5039210;28;20041;-54
2023/10/27 11:18:44;;;;;;;9.00;3.47;;;12.30;99.90;;;;;;5004294;28;20548;-55
2023/10/27 11:21:20;;;;;;;8.07;3.80;;;12.20;99.90;;;;;;5020757;28;20071;-55
2023/10/27 11:23:47;;;;;;;8.55;3.72;;;12.20;99.90;;;;;;5037845;28;20490;-53
2023/10/27 11:26:14;;;;;;;7.70;3.90;;;12.20;99.90;;;;;;5038342;28;20051;-54
2023/10/27 11:28:44;;;;;;;10.38;4.50;;;12.20;99.90;;;;;;5038226;28;20030;-53
2023/10/27 11:31:30;;;;;;;10.15;4.60;;;12.20;99.90;;;;;;5020784;28;20085;-55
2023/10/27 11:33:59;;;;;;;9.88;4.43;;;12.10;99.90;;;;;;5037678;28;20041;-55
2023/10/27 11:36:25;;;;;;;8.80;4.43;;;12.10;99.90;;;;;;5038203;28;20041;-55
2023/10/27 11:38:51;;;;;;;9.23;4.60;;;12.10;99.90;;;;;;5038850;28;20498;-55
2023/10/27 11:41:17;;;;;;;9.15;4.57;;;12.20;99.90;;;;;;5004233;28;20029;-55
2023/10/27 11:43:43;;;;;;;8.30;4.63;;;12.20;99.90;;;;;;5038857;28;20048;-53
2023/10/27 11:46:17;;;;;;;10.00;4.78;;;12.10;99.90;;;;;;5038252;28;20033;-53
2023/10/27 11:48:44;;;;;;;9.00;4.10;;;12.10;99.90;;;;;;5037634;28;20479;-52
2023/10/27 11:51:11;;;;;;;9.10;4.75;;;12.10;99.90;;;;;;5037979;28;20049;-54
2023/10/27 11:53:44;;;;;;;9.10;4.80;;;12.10;99.90;;;;;;5037945;28;20033;-53
2023/10/27 11:56:10;;;;;;;9.73;4.22;;;12.10;99.90;;;;;;5037427;28;20112;-54
2023/10/27 11:58:36;;;;;;;11.00;5.32;;;12.00;99.90;;;;;;5038031;28;20033;-53
2023/10/27 12:01:02;;;;;;;8.68;4.40;;;11.90;99.90;;;;;;5037749;28;20037;-50
2023/10/27 12:03:27;;;;;;;13.73;5.75;;;11.90;99.90;;;;;;5038109;28;20048;-54
2023/10/27 12:05:53;;;;;;;13.43;5.70;;;11.90;99.90;;;;;;5037306;28;20112;-55
2023/10/27 12:08:20;;;;;;;13.93;6.80;;;11.90;99.90;;;;;;5003550;28;20124;-52
2023/10/27 12:10:46;;;;;;;17.48;8.02;;;11.80;99.90;;;;;;5037351;28;20033;-55
2023/10/27 12:13:11;;;;;;;20.15;8.70;;;11.80;99.90;;;;;;5037755;28;20473;-55
2023/10/27 12:15:37;;;;;;;22.85;9.75;;;11.80;99.90;;;;;;5037640;28;20026;-54
2023/10/27 12:18:03;;;;;;;18.42;8.63;;;11.90;99.90;;;;;;5018414;28;20036;-55
2023/10/27 12:20:30;;;;;;;17.00;6.78;;;12.00;99.90;;;;;;5036392;28;20029;-54
2023/10/27 12:22:56;;;;;;;15.23;6.72;;;12.00;99.90;;;;;;5036739;28;20030;-54
2023/10/27 12:25:22;;;;;;;13.20;6.07;;;12.20;99.90;;;;;;5036826;28;20021;-55
2023/10/27 12:27:48;;;;;;;12.75;5.10;;;12.30;99.90;;;;;;5036328;28;20026;-53
2023/10/27 12:30:15;;;;;;;12.35;5.60;;;12.30;99.90;;;;;;5036307;28;20025;-54
2023/10/27 12:32:42;;;;;;;13.38;5.40;;;12.30;99.90;;;;;;5037086;28;20030;-51
2023/10/27 12:35:08;;;;;;;9.85;5.03;;;12.30;99.90;;;;;;5036781;28;20029;-55
2023/10/27 12:37:34;;;;;;;9.70;4.60;;;12.30;99.90;;;;;;5036175;28;20104;-55
2023/10/27 12:40:00;;;;;;;10.85;4.85;;;12.30;99.90;;;;;;5037040;28;20068;-55
2023/10/27 12:42:28;;;;;;;8.68;4.65;;;12.30;99.90;;;;;;5019085;28;20038;-55
2023/10/27 12:44:55;;;;;;;12.70;4.90;;;12.30;99.90;;;;;;5036106;28;20082;-53